sensor_id;sensor_type;location;lat;lon;timestamp;temperature;humidity
20856;DHT22;63058;49.424;8.420;2023-05-18T00:02:14;14.80;60.50
20856;DHT22;63058;49.424;8.420;2023-05-18T00:04:42;14.80;60.50
20856;DHT22;63058;49.424;8.420;2023-05-18T00:07:08;14.80;60.60
20856;DHT22;63058;49.424;8.420;2023-05-18T00:09:35;14.70;60.50
20856;DHT22;63058;49.424;8.420;2023-05-18T00:12:03;14.70;60.70
20856;DHT22;63058;49.424;8.420;2023-05-18T00:14:29;14.50;60.80
20856;DHT22;63058;49.424;8.420;2023-05-18T00:16:55;14.50;61.00
20856;DHT22;63058;49.424;8.420;2023-05-18T00:19:23;14.40;61.10
20856;DHT22;63058;49.424;8.420;2023-05-18T00:21:50;14.30;61.20
20856;DHT22;63058;49.424;8.420;2023-05-18T00:24:17;14.20;61.20
20856;DHT22;63058;49.424;8.420;2023-05-18T00:26:44;14.20;61.30
20856;DHT22;63058;49.424;8.420;2023-05-18T00:29:10;14.10;61.60
20856;DHT22;63058;49.424;8.420;2023-05-18T00:31:37;14.00;61.70
20856;DHT22;63058;49.424;8.420;2023-05-18T00:34:11;14.00;61.80
20856;DHT22;63058;49.424;8.420;2023-05-18T00:36:37;14.00;61.80
20856;DHT22;63058;49.424;8.420;2023-05-18T00:39:04;13.90;61.90
20856;DHT22;63058;49.424;8.420;2023-05-18T00:41:31;13.90;62.00
20856;DHT22;63058;49.424;8.420;2023-05-18T00:43:57;13.80;61.90
20856;DHT22;63058;49.424;8.420;2023-05-18T00:46:24;13.80;62.10
20856;DHT22;63058;49.424;8.420;2023-05-18T00:48:52;13.80;62.30
20856;DHT22;63058;49.424;8.420;2023-05-18T00:51:19;13.70;62.40
20856;DHT22;63058;49.424;8.420;2023-05-18T00:53:46;13.70;62.50
20856;DHT22;63058;49.424;8.420;2023-05-18T00:56:11;13.70;62.60
20856;DHT22;63058;49.424;8.420;2023-05-18T00:58:38;13.60;62.60
20856;DHT22;63058;49.424;8.420;2023-05-18T01:01:05;13.60;62.90
20856;DHT22;63058;49.424;8.420;2023-05-18T01:03:35;13.60;63.60
20856;DHT22;63058;49.424;8.420;2023-05-18T01:06:07;13.60;63.00
20856;DHT22;63058;49.424;8.420;2023-05-18T01:08:35;13.60;63.00
20856;DHT22;63058;49.424;8.420;2023-05-18T01:13:50;13.40;63.00
20856;DHT22;63058;49.424;8.420;2023-05-18T01:16:25;13.40;63.20
20856;DHT22;63058;49.424;8.420;2023-05-18T01:22:02;13.30;64.00
20856;DHT22;63058;49.424;8.420;2023-05-18T01:24:36;13.30;64.10
20856;DHT22;63058;49.424;8.420;2023-05-18T01:27:07;13.40;64.20
20856;DHT22;63058;49.424;8.420;2023-05-18T01:29:34;13.40;64.00
20856;DHT22;63058;49.424;8.420;2023-05-18T01:32:00;13.40;63.90
20856;DHT22;63058;49.424;8.420;2023-05-18T01:34:26;13.40;63.70
20856;DHT22;63058;49.424;8.420;2023-05-18T01:36:52;13.30;64.00
20856;DHT22;63058;49.424;8.420;2023-05-18T01:39:18;13.30;64.30
20856;DHT22;63058;49.424;8.420;2023-05-18T01:42:00;13.20;64.20
20856;DHT22;63058;49.424;8.420;2023-05-18T01:44:45;13.20;64.50
20856;DHT22;63058;49.424;8.420;2023-05-18T01:47:15;13.20;64.50
20856;DHT22;63058;49.424;8.420;2023-05-18T01:49:53;13.10;64.50
20856;DHT22;63058;49.424;8.420;2023-05-18T01:52:31;13.10;64.70
20856;DHT22;63058;49.424;8.420;2023-05-18T01:55:00;13.10;64.90
20856;DHT22;63058;49.424;8.420;2023-05-18T01:57:29;13.10;65.00
20856;DHT22;63058;49.424;8.420;2023-05-18T01:59:57;13.10;65.00
20856;DHT22;63058;49.424;8.420;2023-05-18T02:02:24;13.10;65.00
20856;DHT22;63058;49.424;8.420;2023-05-18T02:04:50;13.00;65.00
20856;DHT22;63058;49.424;8.420;2023-05-18T02:07:16;13.00;65.20
20856;DHT22;63058;49.424;8.420;2023-05-18T02:09:42;13.00;65.40
20856;DHT22;63058;49.424;8.420;2023-05-18T02:12:09;13.00;65.30
20856;DHT22;63058;49.424;8.420;2023-05-18T02:14:35;13.00;65.20
20856;DHT22;63058;49.424;8.420;2023-05-18T02:17:01;13.00;65.20
20856;DHT22;63058;49.424;8.420;2023-05-18T02:19:26;12.90;65.40
20856;DHT22;63058;49.424;8.420;2023-05-18T02:21:55;12.90;65.60
20856;DHT22;63058;49.424;8.420;2023-05-18T02:24:21;12.90;65.40
20856;DHT22;63058;49.424;8.420;2023-05-18T02:26:47;12.80;65.30
20856;DHT22;63058;49.424;8.420;2023-05-18T02:29:13;12.70;65.30
20856;DHT22;63058;49.424;8.420;2023-05-18T02:31:39;12.70;65.60
20856;DHT22;63058;49.424;8.420;2023-05-18T02:34:05;12.70;65.80
20856;DHT22;63058;49.424;8.420;2023-05-18T02:36:31;12.60;65.80
20856;DHT22;63058;49.424;8.420;2023-05-18T02:39:07;12.60;65.90
20856;DHT22;63058;49.424;8.420;2023-05-18T02:41:34;12.50;65.60
20856;DHT22;63058;49.424;8.420;2023-05-18T02:44:00;12.50;65.60
20856;DHT22;63058;49.424;8.420;2023-05-18T02:46:27;12.30;65.50
20856;DHT22;63058;49.424;8.420;2023-05-18T02:48:53;12.20;66.40
20856;DHT22;63058;49.424;8.420;2023-05-18T02:51:19;12.10;65.90
20856;DHT22;63058;49.424;8.420;2023-05-18T02:53:46;12.00;66.20
20856;DHT22;63058;49.424;8.420;2023-05-18T02:56:12;12.00;66.70
20856;DHT22;63058;49.424;8.420;2023-05-18T02:58:38;11.90;67.80
20856;DHT22;63058;49.424;8.420;2023-05-18T03:01:04;12.00;67.40
20856;DHT22;63058;49.424;8.420;2023-05-18T03:03:35;12.00;67.40
20856;DHT22;63058;49.424;8.420;2023-05-18T03:06:00;12.00;67.40
20856;DHT22;63058;49.424;8.420;2023-05-18T03:08:29;12.00;67.30
20856;DHT22;63058;49.424;8.420;2023-05-18T03:10:56;12.10;67.40
20856;DHT22;63058;49.424;8.420;2023-05-18T03:13:21;12.10;67.60
20856;DHT22;63058;49.424;8.420;2023-05-18T03:15:47;12.10;67.50
20856;DHT22;63058;49.424;8.420;2023-05-18T03:18:13;12.10;67.60
20856;DHT22;63058;49.424;8.420;2023-05-18T03:20:40;12.10;67.60
20856;DHT22;63058;49.424;8.420;2023-05-18T03:23:05;12.10;67.60
20856;DHT22;63058;49.424;8.420;2023-05-18T03:25:31;12.10;67.70
20856;DHT22;63058;49.424;8.420;2023-05-18T03:27:57;12.10;67.80
20856;DHT22;63058;49.424;8.420;2023-05-18T03:30:23;12.10;67.80
20856;DHT22;63058;49.424;8.420;2023-05-18T03:32:49;12.10;67.90
20856;DHT22;63058;49.424;8.420;2023-05-18T03:35:15;12.10;67.80
20856;DHT22;63058;49.424;8.420;2023-05-18T03:37:41;12.10;67.90
20856;DHT22;63058;49.424;8.420;2023-05-18T03:40:11;12.10;68.00
20856;DHT22;63058;49.424;8.420;2023-05-18T03:42:38;12.10;68.10
20856;DHT22;63058;49.424;8.420;2023-05-18T03:45:06;12.10;68.10
20856;DHT22;63058;49.424;8.420;2023-05-18T03:47:32;12.10;68.00
20856;DHT22;63058;49.424;8.420;2023-05-18T03:49:58;12.10;68.10
20856;DHT22;63058;49.424;8.420;2023-05-18T03:52:24;12.10;68.10
20856;DHT22;63058;49.424;8.420;2023-05-18T03:54:50;12.10;68.00
20856;DHT22;63058;49.424;8.420;2023-05-18T03:57:18;12.00;67.90
20856;DHT22;63058;49.424;8.420;2023-05-18T03:59:44;12.00;68.00
20856;DHT22;63058;49.424;8.420;2023-05-18T04:02:11;12.00;68.10
20856;DHT22;63058;49.424;8.420;2023-05-18T04:04:37;11.90;68.10
20856;DHT22;63058;49.424;8.420;2023-05-18T04:07:07;11.90;68.20
20856;DHT22;63058;49.424;8.420;2023-05-18T04:09:34;11.90;68.20
20856;DHT22;63058;49.424;8.420;2023-05-18T04:11:59;11.90;68.30
20856;DHT22;63058;49.424;8.420;2023-05-18T04:14:27;11.90;68.40
20856;DHT22;63058;49.424;8.420;2023-05-18T04:16:53;11.90;68.40
20856;DHT22;63058;49.424;8.420;2023-05-18T04:19:19;11.80;68.50
20856;DHT22;63058;49.424;8.420;2023-05-18T04:21:46;11.80;69.40
20856;DHT22;63058;49.424;8.420;2023-05-18T04:24:13;11.80;68.80
20856;DHT22;63058;49.424;8.420;2023-05-18T04:26:39;11.80;68.80
20856;DHT22;63058;49.424;8.420;2023-05-18T04:29:05;11.80;68.90
20856;DHT22;63058;49.424;8.420;2023-05-18T04:31:32;11.80;69.00
20856;DHT22;63058;49.424;8.420;2023-05-18T04:33:59;11.80;69.10
20856;DHT22;63058;49.424;8.420;2023-05-18T04:36:25;11.80;69.20
20856;DHT22;63058;49.424;8.420;2023-05-18T04:38:55;11.90;69.10
20856;DHT22;63058;49.424;8.420;2023-05-18T04:41:23;11.90;69.00
20856;DHT22;63058;49.424;8.420;2023-05-18T04:43:49;11.80;68.90
20856;DHT22;63058;49.424;8.420;2023-05-18T04:46:15;11.80;69.10
20856;DHT22;63058;49.424;8.420;2023-05-18T04:48:41;11.80;69.20
20856;DHT22;63058;49.424;8.420;2023-05-18T04:51:07;11.80;69.60
20856;DHT22;63058;49.424;8.420;2023-05-18T04:53:33;11.80;69.70
20856;DHT22;63058;49.424;8.420;2023-05-18T04:55:59;11.80;69.70
20856;DHT22;63058;49.424;8.420;2023-05-18T04:58:25;11.80;69.90
20856;DHT22;63058;49.424;8.420;2023-05-18T05:00:52;11.90;70.00
20856;DHT22;63058;49.424;8.420;2023-05-18T05:03:18;11.90;70.00
20856;DHT22;63058;49.424;8.420;2023-05-18T05:05:43;12.00;70.00
20856;DHT22;63058;49.424;8.420;2023-05-18T05:08:09;12.00;70.00
20856;DHT22;63058;49.424;8.420;2023-05-18T05:10:36;12.00;70.20
20856;DHT22;63058;49.424;8.420;2023-05-18T05:13:02;12.10;70.20
20856;DHT22;63058;49.424;8.420;2023-05-18T05:15:28;12.10;70.20
20856;DHT22;63058;49.424;8.420;2023-05-18T05:17:53;12.10;70.30
20856;DHT22;63058;49.424;8.420;2023-05-18T05:20:19;12.20;70.50
20856;DHT22;63058;49.424;8.420;2023-05-18T05:22:45;12.20;70.50
20856;DHT22;63058;49.424;8.420;2023-05-18T05:25:11;12.20;70.40
20856;DHT22;63058;49.424;8.420;2023-05-18T05:27:37;12.30;70.70
20856;DHT22;63058;49.424;8.420;2023-05-18T05:30:03;12.30;70.70
20856;DHT22;63058;49.424;8.420;2023-05-18T05:32:29;12.30;70.80
20856;DHT22;63058;49.424;8.420;2023-05-18T05:34:55;12.30;70.80
20856;DHT22;63058;49.424;8.420;2023-05-18T05:37:20;12.30;70.80
20856;DHT22;63058;49.424;8.420;2023-05-18T05:39:46;12.40;70.90
20856;DHT22;63058;49.424;8.420;2023-05-18T05:42:12;12.40;70.90
20856;DHT22;63058;49.424;8.420;2023-05-18T05:44:38;12.40;70.90
20856;DHT22;63058;49.424;8.420;2023-05-18T05:47:05;12.50;70.90
20856;DHT22;63058;49.424;8.420;2023-05-18T05:49:31;12.50;70.80
20856;DHT22;63058;49.424;8.420;2023-05-18T05:51:57;12.50;70.80
20856;DHT22;63058;49.424;8.420;2023-05-18T05:54:22;12.60;71.00
20856;DHT22;63058;49.424;8.420;2023-05-18T05:56:48;12.60;71.10
20856;DHT22;63058;49.424;8.420;2023-05-18T05:59:14;12.60;71.10
20856;DHT22;63058;49.424;8.420;2023-05-18T06:01:40;12.60;71.10
20856;DHT22;63058;49.424;8.420;2023-05-18T06:04:05;12.70;71.10
20856;DHT22;63058;49.424;8.420;2023-05-18T06:06:36;12.80;71.10
20856;DHT22;63058;49.424;8.420;2023-05-18T06:09:02;12.80;71.00
20856;DHT22;63058;49.424;8.420;2023-05-18T06:11:29;12.90;70.80
20856;DHT22;63058;49.424;8.420;2023-05-18T06:13:56;12.90;70.60
20856;DHT22;63058;49.424;8.420;2023-05-18T06:16:21;13.00;70.70
20856;DHT22;63058;49.424;8.420;2023-05-18T06:18:47;13.10;70.90
20856;DHT22;63058;49.424;8.420;2023-05-18T06:21:14;13.20;71.00
20856;DHT22;63058;49.424;8.420;2023-05-18T06:23:40;13.20;70.90
20856;DHT22;63058;49.424;8.420;2023-05-18T06:26:05;13.30;71.00
20856;DHT22;63058;49.424;8.420;2023-05-18T06:28:31;13.50;71.10
20856;DHT22;63058;49.424;8.420;2023-05-18T06:30:57;13.60;71.10
20856;DHT22;63058;49.424;8.420;2023-05-18T06:33:23;13.70;71.00
20856;DHT22;63058;49.424;8.420;2023-05-18T06:35:49;13.90;71.00
20856;DHT22;63058;49.424;8.420;2023-05-18T06:38:15;14.00;70.40
20856;DHT22;63058;49.424;8.420;2023-05-18T06:40:41;14.10;70.40
20856;DHT22;63058;49.424;8.420;2023-05-18T06:43:07;14.20;70.30
20856;DHT22;63058;49.424;8.420;2023-05-18T06:45:32;14.30;70.10
20856;DHT22;63058;49.424;8.420;2023-05-18T06:47:58;14.50;70.20
20856;DHT22;63058;49.424;8.420;2023-05-18T06:50:24;14.50;70.10
20856;DHT22;63058;49.424;8.420;2023-05-18T06:52:49;14.60;70.00
20856;DHT22;63058;49.424;8.420;2023-05-18T06:55:16;14.70;70.00
20856;DHT22;63058;49.424;8.420;2023-05-18T06:57:41;14.80;70.00
20856;DHT22;63058;49.424;8.420;2023-05-18T07:00:14;15.00;70.50
20856;DHT22;63058;49.424;8.420;2023-05-18T07:02:40;15.10;69.70
20856;DHT22;63058;49.424;8.420;2023-05-18T07:05:07;15.30;69.90
20856;DHT22;63058;49.424;8.420;2023-05-18T07:07:34;15.40;69.70
20856;DHT22;63058;49.424;8.420;2023-05-18T07:10:01;15.50;69.20
20856;DHT22;63058;49.424;8.420;2023-05-18T07:12:28;15.70;69.20
20856;DHT22;63058;49.424;8.420;2023-05-18T07:14:53;15.70;69.00
20856;DHT22;63058;49.424;8.420;2023-05-18T07:17:19;15.90;68.00
20856;DHT22;63058;49.424;8.420;2023-05-18T07:19:45;15.90;68.00
20856;DHT22;63058;49.424;8.420;2023-05-18T07:22:10;15.90;67.90
20856;DHT22;63058;49.424;8.420;2023-05-18T07:24:36;16.00;67.80
20856;DHT22;63058;49.424;8.420;2023-05-18T07:27:02;16.00;67.60
20856;DHT22;63058;49.424;8.420;2023-05-18T07:29:28;16.00;67.20
20856;DHT22;63058;49.424;8.420;2023-05-18T07:31:54;16.00;67.30
20856;DHT22;63058;49.424;8.420;2023-05-18T07:34:20;16.10;67.30
20856;DHT22;63058;49.424;8.420;2023-05-18T07:36:45;16.10;66.80
20856;DHT22;63058;49.424;8.420;2023-05-18T07:39:11;16.10;66.70
20856;DHT22;63058;49.424;8.420;2023-05-18T07:41:46;16.10;67.00
20856;DHT22;63058;49.424;8.420;2023-05-18T07:44:14;16.20;67.10
20856;DHT22;63058;49.424;8.420;2023-05-18T07:46:40;16.30;67.50
20856;DHT22;63058;49.424;8.420;2023-05-18T07:49:06;16.40;67.70
20856;DHT22;63058;49.424;8.420;2023-05-18T07:51:32;16.50;67.50
20856;DHT22;63058;49.424;8.420;2023-05-18T07:53:58;16.70;67.50
20856;DHT22;63058;49.424;8.420;2023-05-18T07:56:24;16.80;67.70
20856;DHT22;63058;49.424;8.420;2023-05-18T07:58:50;17.00;67.60
20856;DHT22;63058;49.424;8.420;2023-05-18T08:01:16;17.10;67.80
20856;DHT22;63058;49.424;8.420;2023-05-18T08:03:42;17.30;67.60
20856;DHT22;63058;49.424;8.420;2023-05-18T08:06:07;17.40;67.30
20856;DHT22;63058;49.424;8.420;2023-05-18T08:08:33;17.60;67.00
20856;DHT22;63058;49.424;8.420;2023-05-18T08:11:03;17.60;66.80
20856;DHT22;63058;49.424;8.420;2023-05-18T08:13:29;17.80;66.50
20856;DHT22;63058;49.424;8.420;2023-05-18T08:15:55;17.90;66.20
20856;DHT22;63058;49.424;8.420;2023-05-18T08:18:21;17.90;65.70
20856;DHT22;63058;49.424;8.420;2023-05-18T08:20:47;18.00;65.80
20856;DHT22;63058;49.424;8.420;2023-05-18T08:23:18;18.10;65.90
20856;DHT22;63058;49.424;8.420;2023-05-18T08:25:44;18.20;66.70
20856;DHT22;63058;49.424;8.420;2023-05-18T08:28:10;18.30;66.40
20856;DHT22;63058;49.424;8.420;2023-05-18T08:30:35;18.40;65.70
20856;DHT22;63058;49.424;8.420;2023-05-18T08:33:01;18.50;65.40
20856;DHT22;63058;49.424;8.420;2023-05-18T08:35:27;18.50;65.40
20856;DHT22;63058;49.424;8.420;2023-05-18T08:37:53;18.60;65.40
20856;DHT22;63058;49.424;8.420;2023-05-18T08:40:19;18.70;65.50
20856;DHT22;63058;49.424;8.420;2023-05-18T08:43:09;18.80;65.60
20856;DHT22;63058;49.424;8.420;2023-05-18T08:45:43;18.80;63.90
20856;DHT22;63058;49.424;8.420;2023-05-18T08:48:14;18.90;63.90
20856;DHT22;63058;49.424;8.420;2023-05-18T08:50:41;19.00;64.20
20856;DHT22;63058;49.424;8.420;2023-05-18T08:53:09;19.00;63.80
20856;DHT22;63058;49.424;8.420;2023-05-18T08:55:36;19.10;63.50
20856;DHT22;63058;49.424;8.420;2023-05-18T08:58:06;19.10;63.90
20856;DHT22;63058;49.424;8.420;2023-05-18T09:00:33;19.10;63.40
20856;DHT22;63058;49.424;8.420;2023-05-18T09:03:00;19.20;64.20
20856;DHT22;63058;49.424;8.420;2023-05-18T09:05:26;19.30;64.20
20856;DHT22;63058;49.424;8.420;2023-05-18T09:07:53;19.50;64.20
20856;DHT22;63058;49.424;8.420;2023-05-18T09:10:20;19.50;64.10
20856;DHT22;63058;49.424;8.420;2023-05-18T09:12:47;19.70;64.20
20856;DHT22;63058;49.424;8.420;2023-05-18T09:15:15;19.80;64.50
20856;DHT22;63058;49.424;8.420;2023-05-18T09:17:42;19.90;62.50
20856;DHT22;63058;49.424;8.420;2023-05-18T09:20:08;20.00;61.70
20856;DHT22;63058;49.424;8.420;2023-05-18T09:22:34;20.10;62.70
20856;DHT22;63058;49.424;8.420;2023-05-18T09:25:01;20.30;62.60
20856;DHT22;63058;49.424;8.420;2023-05-18T09:27:28;20.40;62.70
20856;DHT22;63058;49.424;8.420;2023-05-18T09:29:55;20.50;63.10
20856;DHT22;63058;49.424;8.420;2023-05-18T09:32:22;20.80;62.20
20856;DHT22;63058;49.424;8.420;2023-05-18T09:34:48;20.90;62.30
20856;DHT22;63058;49.424;8.420;2023-05-18T09:37:18;21.10;62.50
20856;DHT22;63058;49.424;8.420;2023-05-18T09:39:44;21.20;61.80
20856;DHT22;63058;49.424;8.420;2023-05-18T09:42:10;21.40;62.40
20856;DHT22;63058;49.424;8.420;2023-05-18T09:44:36;21.50;62.70
20856;DHT22;63058;49.424;8.420;2023-05-18T09:47:07;21.60;60.00
20856;DHT22;63058;49.424;8.420;2023-05-18T09:49:33;21.80;60.00
20856;DHT22;63058;49.424;8.420;2023-05-18T09:51:59;21.90;61.10
20856;DHT22;63058;49.424;8.420;2023-05-18T09:54:25;22.10;60.40
20856;DHT22;63058;49.424;8.420;2023-05-18T09:56:57;22.20;60.60
20856;DHT22;63058;49.424;8.420;2023-05-18T09:59:23;22.20;58.30
20856;DHT22;63058;49.424;8.420;2023-05-18T10:01:57;22.30;58.70
20856;DHT22;63058;49.424;8.420;2023-05-18T10:04:45;22.30;57.50
20856;DHT22;63058;49.424;8.420;2023-05-18T10:07:13;22.30;57.00
20856;DHT22;63058;49.424;8.420;2023-05-18T10:09:43;22.30;58.90
20856;DHT22;63058;49.424;8.420;2023-05-18T10:12:19;22.30;58.30
20856;DHT22;63058;49.424;8.420;2023-05-18T10:14:48;22.30;58.00
20856;DHT22;63058;49.424;8.420;2023-05-18T10:17:14;22.50;60.50
20856;DHT22;63058;49.424;8.420;2023-05-18T10:19:41;22.60;60.70
20856;DHT22;63058;49.424;8.420;2023-05-18T10:22:08;22.80;60.10
20856;DHT22;63058;49.424;8.420;2023-05-18T10:24:38;22.90;60.30
20856;DHT22;63058;49.424;8.420;2023-05-18T10:27:08;23.10;60.10
20856;DHT22;63058;49.424;8.420;2023-05-18T10:29:37;23.20;58.70
20856;DHT22;63058;49.424;8.420;2023-05-18T10:32:04;23.30;57.60
20856;DHT22;63058;49.424;8.420;2023-05-18T10:34:33;23.40;58.80
20856;DHT22;63058;49.424;8.420;2023-05-18T10:37:01;23.50;58.80
20856;DHT22;63058;49.424;8.420;2023-05-18T10:39:30;23.70;58.30
20856;DHT22;63058;49.424;8.420;2023-05-18T10:41:59;23.90;57.40
20856;DHT22;63058;49.424;8.420;2023-05-18T10:44:26;24.00;57.60
20856;DHT22;63058;49.424;8.420;2023-05-18T10:46:52;24.20;57.80
20856;DHT22;63058;49.424;8.420;2023-05-18T10:49:20;24.40;58.10
20856;DHT22;63058;49.424;8.420;2023-05-18T10:51:52;24.60;57.80
20856;DHT22;63058;49.424;8.420;2023-05-18T10:54:18;24.90;57.30
20856;DHT22;63058;49.424;8.420;2023-05-18T10:56:47;25.20;57.80
20856;DHT22;63058;49.424;8.420;2023-05-18T10:59:15;25.40;56.40
20856;DHT22;63058;49.424;8.420;2023-05-18T11:01:43;25.60;56.50
20856;DHT22;63058;49.424;8.420;2023-05-18T11:04:10;25.80;55.40
20856;DHT22;63058;49.424;8.420;2023-05-18T11:06:36;26.00;55.80
20856;DHT22;63058;49.424;8.420;2023-05-18T11:09:02;26.20;53.30
20856;DHT22;63058;49.424;8.420;2023-05-18T11:11:29;26.50;54.70
20856;DHT22;63058;49.424;8.420;2023-05-18T11:14:02;26.70;51.90
20856;DHT22;63058;49.424;8.420;2023-05-18T11:16:35;26.80;51.70
20856;DHT22;63058;49.424;8.420;2023-05-18T11:19:08;26.80;50.10
20856;DHT22;63058;49.424;8.420;2023-05-18T11:24:21;26.60;50.90
20856;DHT22;63058;49.424;8.420;2023-05-18T11:29:34;26.50;51.80
20856;DHT22;63058;49.424;8.420;2023-05-18T11:32:01;26.70;53.10
20856;DHT22;63058;49.424;8.420;2023-05-18T11:34:52;26.90;52.70
20856;DHT22;63058;49.424;8.420;2023-05-18T11:40:09;27.30;50.90
20856;DHT22;63058;49.424;8.420;2023-05-18T11:42:35;27.60;54.30
20856;DHT22;63058;49.424;8.420;2023-05-18T11:45:11;27.90;54.90
20856;DHT22;63058;49.424;8.420;2023-05-18T11:47:38;28.40;51.90
20856;DHT22;63058;49.424;8.420;2023-05-18T11:50:09;28.70;53.90
20856;DHT22;63058;49.424;8.420;2023-05-18T11:52:46;29.00;52.80
20856;DHT22;63058;49.424;8.420;2023-05-18T11:55:14;29.20;51.40
20856;DHT22;63058;49.424;8.420;2023-05-18T11:57:42;29.30;51.50
20856;DHT22;63058;49.424;8.420;2023-05-18T12:00:11;29.30;51.90
20856;DHT22;63058;49.424;8.420;2023-05-18T12:02:37;29.40;51.80
20856;DHT22;63058;49.424;8.420;2023-05-18T12:05:07;29.50;51.90
20856;DHT22;63058;49.424;8.420;2023-05-18T12:07:34;29.60;50.60
20856;DHT22;63058;49.424;8.420;2023-05-18T12:10:02;29.70;51.90
20856;DHT22;63058;49.424;8.420;2023-05-18T12:12:28;29.90;50.40
20856;DHT22;63058;49.424;8.420;2023-05-18T12:14:56;30.00;48.30
20856;DHT22;63058;49.424;8.420;2023-05-18T12:17:23;30.00;48.40
20856;DHT22;63058;49.424;8.420;2023-05-18T12:19:49;30.00;47.60
20856;DHT22;63058;49.424;8.420;2023-05-18T12:22:15;30.00;47.50
20856;DHT22;63058;49.424;8.420;2023-05-18T12:24:42;29.90;49.00
20856;DHT22;63058;49.424;8.420;2023-05-18T12:27:09;30.00;50.30
20856;DHT22;63058;49.424;8.420;2023-05-18T12:29:40;30.10;51.10
20856;DHT22;63058;49.424;8.420;2023-05-18T12:32:09;30.40;48.90
20856;DHT22;63058;49.424;8.420;2023-05-18T12:34:35;30.50;48.70
20856;DHT22;63058;49.424;8.420;2023-05-18T12:37:01;30.50;48.80
20856;DHT22;63058;49.424;8.420;2023-05-18T12:39:27;30.60;48.60
20856;DHT22;63058;49.424;8.420;2023-05-18T12:41:53;30.70;48.40
20856;DHT22;63058;49.424;8.420;2023-05-18T12:44:32;30.90;48.50
20856;DHT22;63058;49.424;8.420;2023-05-18T12:46:57;31.00;48.80
20856;DHT22;63058;49.424;8.420;2023-05-18T12:49:23;31.10;48.60
20856;DHT22;63058;49.424;8.420;2023-05-18T12:51:54;31.20;45.30
20856;DHT22;63058;49.424;8.420;2023-05-18T12:54:27;31.20;43.30
20856;DHT22;63058;49.424;8.420;2023-05-18T12:56:55;31.30;44.40
20856;DHT22;63058;49.424;8.420;2023-05-18T12:59:25;31.30;45.00
20856;DHT22;63058;49.424;8.420;2023-05-18T13:01:54;31.30;45.70
20856;DHT22;63058;49.424;8.420;2023-05-18T13:04:21;31.20;45.00
20856;DHT22;63058;49.424;8.420;2023-05-18T13:06:47;31.10;45.50
20856;DHT22;63058;49.424;8.420;2023-05-18T13:09:14;31.10;45.40
20856;DHT22;63058;49.424;8.420;2023-05-18T13:11:45;31.20;46.20
20856;DHT22;63058;49.424;8.420;2023-05-18T13:14:10;31.30;46.20
20856;DHT22;63058;49.424;8.420;2023-05-18T13:16:38;31.50;45.10
20856;DHT22;63058;49.424;8.420;2023-05-18T13:19:08;31.70;45.30
20856;DHT22;63058;49.424;8.420;2023-05-18T13:21:35;31.90;45.00
20856;DHT22;63058;49.424;8.420;2023-05-18T13:24:02;32.10;45.90
20856;DHT22;63058;49.424;8.420;2023-05-18T13:26:28;32.40;46.50
20856;DHT22;63058;49.424;8.420;2023-05-18T13:28:55;32.70;45.40
20856;DHT22;63058;49.424;8.420;2023-05-18T13:31:21;33.00;43.90
20856;DHT22;63058;49.424;8.420;2023-05-18T13:33:48;33.20;43.10
20856;DHT22;63058;49.424;8.420;2023-05-18T13:36:15;33.30;42.30
20856;DHT22;63058;49.424;8.420;2023-05-18T13:38:41;33.30;42.70
20856;DHT22;63058;49.424;8.420;2023-05-18T13:41:09;33.40;43.70
20856;DHT22;63058;49.424;8.420;2023-05-18T13:43:36;33.50;43.10
20856;DHT22;63058;49.424;8.420;2023-05-18T13:46:02;33.70;41.20
20856;DHT22;63058;49.424;8.420;2023-05-18T13:48:29;33.70;41.40
20856;DHT22;63058;49.424;8.420;2023-05-18T13:50:55;33.80;41.60
20856;DHT22;63058;49.424;8.420;2023-05-18T13:53:21;33.90;41.40
20856;DHT22;63058;49.424;8.420;2023-05-18T13:55:48;33.90;40.90
20856;DHT22;63058;49.424;8.420;2023-05-18T13:58:13;33.90;40.50
20856;DHT22;63058;49.424;8.420;2023-05-18T14:00:39;33.90;41.20
20856;DHT22;63058;49.424;8.420;2023-05-18T14:03:06;33.80;40.70
20856;DHT22;63058;49.424;8.420;2023-05-18T14:05:31;33.70;40.70
20856;DHT22;63058;49.424;8.420;2023-05-18T14:07:57;33.70;41.60
20856;DHT22;63058;49.424;8.420;2023-05-18T14:10:23;33.90;41.30
20856;DHT22;63058;49.424;8.420;2023-05-18T14:12:48;34.00;42.00
20856;DHT22;63058;49.424;8.420;2023-05-18T14:53:22;32.60;42.50
20856;DHT22;63058;49.424;8.420;2023-05-18T14:55:48;32.70;37.00
20856;DHT22;63058;49.424;8.420;2023-05-18T14:58:14;33.00;37.80
20856;DHT22;63058;49.424;8.420;2023-05-18T15:00:40;33.40;38.30
20856;DHT22;63058;49.424;8.420;2023-05-18T15:03:06;33.50;37.90
20856;DHT22;63058;49.424;8.420;2023-05-18T15:05:32;33.70;37.00
20856;DHT22;63058;49.424;8.420;2023-05-18T15:07:58;33.50;36.40
20856;DHT22;63058;49.424;8.420;2023-05-18T15:10:23;33.30;36.10
20856;DHT22;63058;49.424;8.420;2023-05-18T15:12:49;33.10;36.20
20856;DHT22;63058;49.424;8.420;2023-05-18T15:15:15;33.00;37.50
20856;DHT22;63058;49.424;8.420;2023-05-18T15:17:41;33.10;38.20
20856;DHT22;63058;49.424;8.420;2023-05-18T15:20:07;33.30;36.90
20856;DHT22;63058;49.424;8.420;2023-05-18T15:22:33;33.40;37.30
20856;DHT22;63058;49.424;8.420;2023-05-18T15:25:03;33.70;37.40
20856;DHT22;63058;49.424;8.420;2023-05-18T15:27:34;33.90;36.70
20856;DHT22;63058;49.424;8.420;2023-05-18T15:30:00;34.10;37.60
20856;DHT22;63058;49.424;8.420;2023-05-18T15:32:26;34.20;37.80
20856;DHT22;63058;49.424;8.420;2023-05-18T15:34:51;34.40;38.00
20856;DHT22;63058;49.424;8.420;2023-05-18T15:37:18;34.50;38.10
20856;DHT22;63058;49.424;8.420;2023-05-18T15:39:43;34.60;38.50
20856;DHT22;63058;49.424;8.420;2023-05-18T15:42:09;34.60;37.50
20856;DHT22;63058;49.424;8.420;2023-05-18T15:44:35;34.70;37.60
20856;DHT22;63058;49.424;8.420;2023-05-18T15:47:01;34.80;36.90
20856;DHT22;63058;49.424;8.420;2023-05-18T15:49:27;34.90;37.30
20856;DHT22;63058;49.424;8.420;2023-05-18T15:51:53;35.00;36.50
20856;DHT22;63058;49.424;8.420;2023-05-18T15:54:18;35.00;36.40
20856;DHT22;63058;49.424;8.420;2023-05-18T15:56:44;35.10;36.70
20856;DHT22;63058;49.424;8.420;2023-05-18T15:59:09;35.30;37.30
20856;DHT22;63058;49.424;8.420;2023-05-18T16:01:35;35.50;37.60
20856;DHT22;63058;49.424;8.420;2023-05-18T16:04:01;35.80;36.10
20856;DHT22;63058;49.424;8.420;2023-05-18T16:06:27;36.00;36.30
20856;DHT22;63058;49.424;8.420;2023-05-18T16:08:53;36.10;36.60
20856;DHT22;63058;49.424;8.420;2023-05-18T16:11:20;36.30;36.50
20856;DHT22;63058;49.424;8.420;2023-05-18T16:13:46;36.40;36.10
20856;DHT22;63058;49.424;8.420;2023-05-18T16:16:15;36.30;34.90
20856;DHT22;63058;49.424;8.420;2023-05-18T16:18:41;36.00;33.80
20856;DHT22;63058;49.424;8.420;2023-05-18T16:21:07;35.70;33.70
20856;DHT22;63058;49.424;8.420;2023-05-18T16:23:33;35.50;34.30